Time;durP1;ratioP1;P1;durP2;ratioP2;P2;SDS_P1;SDS_P2;PMS_P1;PMS_P2;Temp;Humidity;BMP_temperature;BMP_pressure;BME280_temperature;BME280_humidity;BME280_pressure;Samples;Min_cycle;Max_cycle;Signal;HPM_P1;HPM_P2
2024/01/29 00:02:14;;;;;;;49.88;25.77;;;;;;;;;;5017455;28;20113;-71
2024/01/29 00:04:41;;;;;;;54.10;25.83;;;;;;;;;;5017298;28;20030;-69
2024/01/29 00:07:06;;;;;;;49.80;26.20;;;;;;;;;;5017892;28;20101;-70
2024/01/29 00:09:32;;;;;;;43.70;22.98;;;;;;;;;;5017916;28;20417;-70
2024/01/29 00:11:57;;;;;;;42.63;22.88;;;;;;;;;;5017950;28;20477;-71
2024/01/29 00:14:23;;;;;;;45.08;23.00;;;;;;;;;;5017915;28;20117;-62
2024/01/29 00:16:48;;;;;;;45.78;22.85;;;;;;;;;;5017368;28;20030;-62
2024/01/29 00:19:14;;;;;;;42.92;22.38;;;;;;;;;;4999828;28;20034;-61
2024/01/29 00:21:39;;;;;;;33.03;19.23;;;;;;;;;;4999688;28;20030;-61
2024/01/29 00:24:05;;;;;;;26.15;16.45;;;;;;;;;;4999781;28;20116;-71
2024/01/29 00:26:30;;;;;;;32.17;18.00;;;;;;;;;;5017240;28;20406;-71
2024/01/29 00:28:56;;;;;;;27.55;17.92;;;;;;;;;;5017294;28;20343;-72
2024/01/29 00:31:22;;;;;;;36.15;21.25;;;;;;;;;;5017412;28;20153;-72
2024/01/29 00:33:48;;;;;;;46.65;25.48;;;;;;;;;;5017069;28;20045;-72
2024/01/29 00:36:14;;;;;;;59.25;26.40;;;;;;;;;;4999547;28;20033;-63
2024/01/29 00:38:39;;;;;;;59.67;27.13;;;;;;;;;;5017182;28;20034;-71
2024/01/29 00:41:04;;;;;;;60.30;27.17;;;;;;;;;;5017006;28;20124;-72
2024/01/29 00:43:30;;;;;;;66.13;29.20;;;;;;;;;;4999637;28;20119;-72
2024/01/29 00:45:55;;;;;;;72.47;30.98;;;;;;;;;;5016707;28;20034;-62
2024/01/29 00:48:22;;;;;;;54.25;26.23;;;;;;;;;;5000684;28;20026;-62
2024/01/29 00:50:48;;;;;;;36.35;20.58;;;;;;;;;;4963671;28;20422;-72
2024/01/29 00:53:15;;;;;;;46.50;23.02;;;;;;;;;;4997491;28;20031;-63
2024/01/29 00:55:42;;;;;;;52.40;25.02;;;;;;;;;;4997570;28;20042;-62
2024/01/29 00:58:08;;;;;;;42.33;22.00;;;;;;;;;;4997484;28;20046;-61
2024/01/29 01:00:34;;;;;;;35.08;20.58;;;;;;;;;;4979945;28;20081;-61
2024/01/29 01:02:59;;;;;;;37.65;20.90;;;;;;;;;;4979139;28;20039;-60
2024/01/29 01:05:25;;;;;;;38.80;21.50;;;;;;;;;;4996654;28;20113;-61
2024/01/29 01:07:50;;;;;;;36.25;20.85;;;;;;;;;;4996873;28;20030;-61
2024/01/29 01:10:16;;;;;;;36.53;20.90;;;;;;;;;;4997082;28;20025;-62
2024/01/29 01:12:41;;;;;;;34.35;21.13;;;;;;;;;;4997214;28;20419;-62
2024/01/29 01:15:07;;;;;;;37.58;21.40;;;;;;;;;;4996550;28;20065;-62
2024/01/29 01:17:32;;;;;;;33.22;19.98;;;;;;;;;;4997047;28;20034;-63
2024/01/29 01:19:58;;;;;;;33.22;20.67;;;;;;;;;;4979723;28;20045;-63
2024/01/29 01:22:23;;;;;;;33.08;18.70;;;;;;;;;;4997014;28;20045;-63
2024/01/29 01:24:49;;;;;;;36.13;19.77;;;;;;;;;;4996578;28;20120;-63
2024/01/29 01:27:16;;;;;;;30.30;18.73;;;;;;;;;;4996994;28;20026;-62
2024/01/29 01:29:43;;;;;;;34.67;20.23;;;;;;;;;;4996430;28;20112;-63
2024/01/29 01:32:09;;;;;;;35.25;19.50;;;;;;;;;;4962718;28;20028;-63
2024/01/29 01:34:34;;;;;;;31.08;20.08;;;;;;;;;;4996372;28;20030;-72
2024/01/29 01:36:59;;;;;;;35.83;20.40;;;;;;;;;;4996643;28;20050;-72
2024/01/29 01:39:25;;;;;;;31.88;19.13;;;;;;;;;;4996648;28;20532;-72
2024/01/29 01:41:50;;;;;;;32.80;18.77;;;;;;;;;;4996525;28;20117;-72
2024/01/29 01:44:16;;;;;;;28.95;17.63;;;;;;;;;;4996498;28;20030;-63
2024/01/29 01:46:42;;;;;;;32.03;18.20;;;;;;;;;;4999603;28;20010;-63
2024/01/29 01:49:08;;;;;;;30.10;20.10;;;;;;;;;;5016119;28;20366;-63
2024/01/29 01:51:34;;;;;;;27.80;18.65;;;;;;;;;;5015810;28;20064;-63
2024/01/29 01:54:00;;;;;;;26.95;17.80;;;;;;;;;;5015393;28;20448;-62
2024/01/29 01:56:26;;;;;;;25.73;16.67;;;;;;;;;;5015240;28;20029;-62
2024/01/29 01:58:53;;;;;;;24.38;15.73;;;;;;;;;;5015302;28;20500;-71
2024/01/29 02:01:19;;;;;;;27.35;16.25;;;;;;;;;;5015591;28;20034;-72
2024/01/29 02:03:45;;;;;;;21.98;13.88;;;;;;;;;;5015887;28;20100;-71
2024/01/29 02:06:11;;;;;;;20.42;14.05;;;;;;;;;;5015769;28;20034;-71
2024/01/29 02:08:37;;;;;;;17.67;13.05;;;;;;;;;;4997602;28;20026;-70
2024/01/29 02:11:04;;;;;;;19.45;13.05;;;;;;;;;;5015538;28;20037;-71
2024/01/29 02:13:30;;;;;;;19.83;13.13;;;;;;;;;;5015422;28;20481;-70
2024/01/29 02:15:55;;;;;;;19.00;12.52;;;;;;;;;;5015423;28;20037;-70
2024/01/29 02:18:21;;;;;;;17.45;11.98;;;;;;;;;;5015061;28;20525;-61
2024/01/29 02:20:46;;;;;;;17.83;12.35;;;;;;;;;;5015220;28;20497;-61
2024/01/29 02:23:11;;;;;;;19.85;12.45;;;;;;;;;;5015434;28;20065;-61
2024/01/29 02:25:37;;;;;;;18.35;11.70;;;;;;;;;;5015206;28;20065;-61
2024/01/29 02:28:02;;;;;;;17.58;12.27;;;;;;;;;;5013938;28;20038;-61
2024/01/29 02:30:28;;;;;;;15.23;11.15;;;;;;;;;;5015417;28;20025;-61
2024/01/29 02:32:53;;;;;;;16.45;12.07;;;;;;;;;;5014742;28;20034;-61
2024/01/29 02:35:19;;;;;;;15.20;11.20;;;;;;;;;;5014813;28;20030;-61
2024/01/29 02:37:44;;;;;;;17.00;11.40;;;;;;;;;;5014647;28;20040;-70
2024/01/29 02:40:10;;;;;;;17.40;12.15;;;;;;;;;;5014781;28;20036;-61
2024/01/29 02:42:35;;;;;;;16.50;11.35;;;;;;;;;;4997419;28;20042;-61
2024/01/29 02:45:01;;;;;;;16.85;11.90;;;;;;;;;;5014907;28;20065;-69
2024/01/29 02:47:26;;;;;;;17.63;11.90;;;;;;;;;;5014859;28;20030;-61
2024/01/29 02:49:51;;;;;;;17.02;11.65;;;;;;;;;;4997398;28;20490;-68
2024/01/29 02:52:17;;;;;;;18.65;12.80;;;;;;;;;;5014791;28;20029;-70
2024/01/29 02:54:42;;;;;;;20.60;13.57;;;;;;;;;;5014844;28;20049;-68
2024/01/29 02:57:07;;;;;;;22.05;15.82;;;;;;;;;;5014812;28;20053;-68
2024/01/29 02:59:33;;;;;;;21.08;16.02;;;;;;;;;;4997145;28;20065;-68
2024/01/29 03:01:59;;;;;;;18.98;14.80;;;;;;;;;;5014841;28;20072;-69
2024/01/29 03:04:25;;;;;;;20.30;15.40;;;;;;;;;;5014691;28;20060;-71
2024/01/29 03:06:50;;;;;;;18.13;14.88;;;;;;;;;;4996631;28;20430;-70
2024/01/29 03:09:16;;;;;;;17.23;13.82;;;;;;;;;;4996842;28;20037;-70
2024/01/29 03:11:42;;;;;;;16.50;12.45;;;;;;;;;;4996626;28;20117;-72
2024/01/29 03:14:08;;;;;;;13.90;10.65;;;;;;;;;;5014703;28;20052;-72
2024/01/29 03:16:33;;;;;;;13.15;9.95;;;;;;;;;;4996554;28;20577;-72
2024/01/29 03:18:59;;;;;;;12.45;9.65;;;;;;;;;;5013243;28;20036;-72
2024/01/29 03:21:27;;;;;;;11.98;9.40;;;;;;;;;;5014532;28;20060;-72
2024/01/29 03:23:52;;;;;;;12.05;9.93;;;;;;;;;;5014204;28;20018;-72
2024/01/29 03:26:18;;;;;;;15.90;10.32;;;;;;;;;;5014157;28;20088;-62
2024/01/29 03:28:43;;;;;;;13.18;9.82;;;;;;;;;;5013980;28;20031;-61
2024/01/29 03:31:08;;;;;;;13.30;10.07;;;;;;;;;;5012573;28;20478;-61
2024/01/29 03:33:34;;;;;;;13.50;9.68;;;;;;;;;;5014269;28;20030;-62
2024/01/29 03:36:02;;;;;;;20.77;12.63;;;;;;;;;;5014512;28;20034;-62
2024/01/29 03:38:28;;;;;;;15.68;10.95;;;;;;;;;;5014583;28;20042;-72
2024/01/29 03:40:53;;;;;;;12.57;10.18;;;;;;;;;;4996903;28;20037;-72
2024/01/29 03:43:19;;;;;;;14.63;10.13;;;;;;;;;;4996204;28;20026;-62
2024/01/29 03:45:45;;;;;;;14.32;10.55;;;;;;;;;;5014116;28;20589;-62
2024/01/29 03:48:11;;;;;;;14.10;10.75;;;;;;;;;;5014449;28;20049;-62
2024/01/29 03:50:36;;;;;;;13.15;11.48;;;;;;;;;;5013974;28;20355;-62
2024/01/29 03:53:02;;;;;;;13.20;11.00;;;;;;;;;;5013835;28;20085;-72
2024/01/29 03:55:28;;;;;;;17.73;11.30;;;;;;;;;;5014029;28;20537;-62
2024/01/29 03:57:53;;;;;;;82.47;28.10;;;;;;;;;;4996583;28;20036;-72
2024/01/29 04:00:19;;;;;;;42.55;18.38;;;;;;;;;;5013579;28;20492;-71
2024/01/29 04:02:46;;;;;;;26.13;13.88;;;;;;;;;;5014112;28;20030;-72
2024/01/29 04:05:15;;;;;;;32.33;16.10;;;;;;;;;;4996603;28;20041;-73
2024/01/29 04:07:40;;;;;;;18.05;12.30;;;;;;;;;;5013792;28;20023;-63
2024/01/29 04:10:08;;;;;;;14.20;11.68;;;;;;;;;;5013871;28;20048;-62
2024/01/29 04:12:33;;;;;;;16.75;12.50;;;;;;;;;;4996469;28;20030;-66
2024/01/29 04:14:59;;;;;;;16.95;13.55;;;;;;;;;;5013513;28;20040;-66
2024/01/29 04:17:24;;;;;;;18.92;15.10;;;;;;;;;;5018538;23;20525;-60
2024/01/29 04:19:50;;;;;;;22.17;17.30;;;;;;;;;;5034470;23;20358;-67
2024/01/29 04:22:15;;;;;;;21.40;16.00;;;;;;;;;;5030231;23;20064;-60
2024/01/29 04:24:41;;;;;;;19.77;15.27;;;;;;;;;;5034391;23;20050;-60
2024/01/29 04:27:06;;;;;;;17.92;14.35;;;;;;;;;;5013593;28;20120;-60
2024/01/29 04:29:31;;;;;;;63.30;41.72;;;;;;;;;;5012078;28;20018;-60
2024/01/29 04:31:59;;;;;;;51.67;35.72;;;;;;;;;;5016610;28;20038;-61
2024/01/29 04:34:24;;;;;;;49.65;30.00;;;;;;;;;;5017309;28;20473;-61
2024/01/29 04:36:50;;;;;;;35.13;23.17;;;;;;;;;;5016932;28;20072;-60
2024/01/29 04:39:15;;;;;;;18.02;12.88;;;;;;;;;;5016843;28;20477;-60
2024/01/29 04:41:40;;;;;;;15.57;9.95;;;;;;;;;;5017042;28;20048;-59
2024/01/29 04:44:06;;;;;;;16.38;12.50;;;;;;;;;;5016853;28;20399;-59
2024/01/29 04:46:31;;;;;;;18.17;13.45;;;;;;;;;;5015386;28;20038;-60
2024/01/29 04:48:57;;;;;;;16.98;11.75;;;;;;;;;;5016037;28;20026;-60
2024/01/29 04:51:22;;;;;;;44.75;19.60;;;;;;;;;;5016093;28;20601;-60
2024/01/29 04:53:48;;;;;;;42.17;19.85;;;;;;;;;;5016127;28;20045;-60
2024/01/29 04:56:13;;;;;;;35.25;18.35;;;;;;;;;;5016269;28;20042;-60
2024/01/29 04:58:38;;;;;;;32.50;18.35;;;;;;;;;;5015334;28;20029;-59
2024/01/29 05:01:04;;;;;;;28.55;16.77;;;;;;;;;;5015853;28;20038;-60
2024/01/29 05:03:29;;;;;;;22.83;14.90;;;;;;;;;;5015645;28;20034;-60
2024/01/29 05:05:55;;;;;;;14.85;11.07;;;;;;;;;;5015533;28;20030;-59
2024/01/29 05:08:20;;;;;;;12.10;9.45;;;;;;;;;;5015450;28;20079;-60
2024/01/29 05:10:46;;;;;;;9.35;8.05;;;;;;;;;;5015448;28;20024;-59
2024/01/29 05:13:11;;;;;;;9.40;8.07;;;;;;;;;;5015197;28;20514;-60
2024/01/29 05:15:37;;;;;;;12.02;8.80;;;;;;;;;;5015338;28;20120;-60
2024/01/29 05:18:02;;;;;;;9.48;7.95;;;;;;;;;;5015857;28;20029;-60
2024/01/29 05:20:29;;;;;;;11.45;8.27;;;;;;;;;;5016641;28;20088;-60
2024/01/29 05:22:55;;;;;;;16.50;12.27;;;;;;;;;;5016365;28;20105;-60
2024/01/29 05:25:21;;;;;;;33.25;20.65;;;;;;;;;;5015825;28;20124;-57
2024/01/29 05:27:46;;;;;;;18.83;13.23;;;;;;;;;;5016132;28;20445;-58
2024/01/29 05:30:11;;;;;;;39.38;26.20;;;;;;;;;;5016094;28;20103;-58
2024/01/29 05:32:37;;;;;;;29.60;21.92;;;;;;;;;;5016005;28;20053;-58
2024/01/29 05:35:02;;;;;;;28.55;22.85;;;;;;;;;;5015847;28;20378;-58
2024/01/29 05:37:28;;;;;;;36.75;19.67;;;;;;;;;;5016226;28;20421;-58
2024/01/29 05:39:54;;;;;;;37.95;20.08;;;;;;;;;;5015982;28;20038;-58
2024/01/29 05:42:19;;;;;;;57.10;30.50;;;;;;;;;;5015195;28;20037;-57
2024/01/29 05:44:45;;;;;;;61.15;39.28;;;;;;;;;;5015615;28;20500;-57
2024/01/29 05:47:10;;;;;;;44.92;31.50;;;;;;;;;;5014581;28;20033;-57
2024/01/29 05:49:36;;;;;;;39.90;27.08;;;;;;;;;;5015525;28;20033;-57
2024/01/29 05:52:01;;;;;;;26.38;18.25;;;;;;;;;;5015818;28;20497;-57
2024/01/29 05:54:28;;;;;;;26.33;18.35;;;;;;;;;;5016162;28;20488;-57
2024/01/29 05:56:53;;;;;;;20.08;15.07;;;;;;;;;;5016000;28;20040;-57
2024/01/29 05:59:19;;;;;;;17.25;13.70;;;;;;;;;;5015464;28;20112;-57
2024/01/29 06:01:44;;;;;;;14.15;10.95;;;;;;;;;;5016029;28;20116;-57
2024/01/29 06:04:10;;;;;;;18.52;14.05;;;;;;;;;;5015578;28;20045;-57
2024/01/29 06:06:38;;;;;;;18.60;14.20;;;;;;;;;;5015198;28;20081;-57
2024/01/29 06:09:07;;;;;;;22.50;15.80;;;;;;;;;;5015500;28;20030;-57
2024/01/29 06:11:32;;;;;;;20.40;15.30;;;;;;;;;;5015734;28;20113;-57
2024/01/29 06:13:59;;;;;;;25.48;15.88;;;;;;;;;;5015839;28;20054;-57
2024/01/29 06:16:25;;;;;;;26.85;16.52;;;;;;;;;;5015097;28;20030;-57
2024/01/29 06:18:51;;;;;;;26.52;17.80;;;;;;;;;;5015223;28;20402;-57
2024/01/29 06:21:16;;;;;;;27.23;17.30;;;;;;;;;;5015181;28;20028;-57
2024/01/29 06:23:42;;;;;;;21.08;14.30;;;;;;;;;;5013925;28;20420;-57
2024/01/29 06:26:07;;;;;;;26.58;17.40;;;;;;;;;;5015019;28;20061;-57
2024/01/29 06:28:33;;;;;;;29.30;17.75;;;;;;;;;;5015294;28;20079;-57
2024/01/29 06:30:58;;;;;;;25.95;16.33;;;;;;;;;;5014716;28;20104;-57
2024/01/29 06:33:24;;;;;;;25.73;17.40;;;;;;;;;;5012897;28;20018;-57
2024/01/29 06:35:50;;;;;;;24.65;15.27;;;;;;;;;;5013932;28;20083;-57
2024/01/29 06:38:15;;;;;;;22.05;14.98;;;;;;;;;;5014012;28;20456;-57
2024/01/29 06:40:41;;;;;;;21.60;15.27;;;;;;;;;;5013795;28;20036;-57
2024/01/29 06:43:06;;;;;;;24.20;17.30;;;;;;;;;;4995130;28;20018;-57
2024/01/29 06:45:32;;;;;;;24.92;15.43;;;;;;;;;;5013201;28;20029;-57
2024/01/29 06:47:57;;;;;;;23.27;16.40;;;;;;;;;;5012896;28;20382;-57
2024/01/29 06:50:23;;;;;;;30.20;19.15;;;;;;;;;;5012740;28;20044;-57
2024/01/29 06:52:49;;;;;;;28.33;18.80;;;;;;;;;;5012642;28;20022;-57
2024/01/29 06:55:14;;;;;;;25.58;17.67;;;;;;;;;;5011269;28;20033;-57
2024/01/29 06:57:40;;;;;;;25.23;17.65;;;;;;;;;;5012679;28;20405;-57
2024/01/29 07:00:06;;;;;;;25.55;19.65;;;;;;;;;;5013587;28;20029;-57
2024/01/29 07:02:31;;;;;;;26.38;18.92;;;;;;;;;;5014611;28;20462;-57
2024/01/29 07:04:57;;;;;;;23.38;17.80;;;;;;;;;;5014188;28;20072;-57
2024/01/29 07:07:22;;;;;;;24.75;17.35;;;;;;;;;;5014252;28;20037;-57
2024/01/29 07:09:49;;;;;;;24.73;16.50;;;;;;;;;;5014765;28;20025;-57
2024/01/29 07:12:15;;;;;;;23.55;16.15;;;;;;;;;;4997256;28;20053;-57
2024/01/29 07:14:41;;;;;;;24.00;15.75;;;;;;;;;;5014145;28;20492;-57
2024/01/29 07:17:06;;;;;;;22.13;16.55;;;;;;;;;;5014109;28;20104;-57
2024/01/29 07:19:33;;;;;;;24.10;15.68;;;;;;;;;;5014105;28;20465;-58
2024/01/29 07:21:59;;;;;;;23.70;17.13;;;;;;;;;;5014071;28;20054;-57
2024/01/29 07:24:25;;;;;;;23.13;17.67;;;;;;;;;;5014111;28;20458;-57
2024/01/29 07:26:50;;;;;;;23.70;17.05;;;;;;;;;;5014158;28;20034;-58
2024/01/29 07:29:16;;;;;;;23.75;17.20;;;;;;;;;;5013040;28;20026;-57
2024/01/29 07:31:41;;;;;;;23.50;16.90;;;;;;;;;;5014141;28;20128;-57
2024/01/29 07:34:07;;;;;;;25.70;18.05;;;;;;;;;;5013855;28;20085;-57
2024/01/29 07:36:32;;;;;;;27.67;19.05;;;;;;;;;;5014359;28;20087;-57
2024/01/29 07:38:57;;;;;;;22.48;16.73;;;;;;;;;;5012517;28;20069;-57
2024/01/29 07:41:23;;;;;;;27.15;17.52;;;;;;;;;;5014022;28;20034;-57
2024/01/29 07:43:49;;;;;;;27.52;19.98;;;;;;;;;;5014317;28;20070;-57
2024/01/29 07:46:15;;;;;;;32.08;21.90;;;;;;;;;;5013700;28;20056;-57
2024/01/29 07:48:41;;;;;;;30.50;20.25;;;;;;;;;;5014020;28;20026;-57
2024/01/29 07:51:06;;;;;;;28.80;20.30;;;;;;;;;;5013713;28;20500;-57
2024/01/29 07:53:32;;;;;;;27.42;17.50;;;;;;;;;;5013697;28;20112;-57
2024/01/29 07:55:57;;;;;;;22.92;16.42;;;;;;;;;;5014216;28;20030;-57
2024/01/29 07:58:23;;;;;;;21.10;15.68;;;;;;;;;;5014200;28;20018;-57
2024/01/29 08:00:50;;;;;;;26.65;18.60;;;;;;;;;;5013661;28;20088;-57
2024/01/29 08:03:15;;;;;;;32.05;23.75;;;;;;;;;;5013853;28;20092;-57
2024/01/29 08:05:40;;;;;;;34.53;24.73;;;;;;;;;;5013435;28;20038;-57
2024/01/29 08:08:06;;;;;;;35.00;24.88;;;;;;;;;;5017793;28;20021;-57
2024/01/29 08:10:33;;;;;;;40.60;29.13;;;;;;;;;;5018011;28;20022;-57
2024/01/29 08:12:58;;;;;;;27.35;19.33;;;;;;;;;;5017710;28;20034;-57
2024/01/29 08:15:24;;;;;;;25.15;18.45;;;;;;;;;;5017642;28;20116;-57
2024/01/29 08:17:49;;;;;;;21.80;16.75;;;;;;;;;;5017375;28;20034;-57
2024/01/29 08:20:14;;;;;;;24.20;17.45;;;;;;;;;;5017307;28;20033;-57
2024/01/29 08:22:40;;;;;;;26.80;18.95;;;;;;;;;;5017557;28;20434;-57
2024/01/29 08:25:05;;;;;;;30.00;20.13;;;;;;;;;;5017356;28;20045;-57
2024/01/29 08:27:31;;;;;;;24.58;17.40;;;;;;;;;;5017456;28;20381;-57
2024/01/29 08:29:57;;;;;;;24.30;16.67;;;;;;;;;;5017137;28;20376;-57
2024/01/29 08:32:23;;;;;;;26.83;17.73;;;;;;;;;;5017339;28;20095;-57
2024/01/29 08:34:49;;;;;;;31.48;21.20;;;;;;;;;;5017291;28;20037;-57
2024/01/29 08:37:15;;;;;;;22.95;16.58;;;;;;;;;;5017263;28;20113;-57
2024/01/29 08:39:40;;;;;;;22.92;17.02;;;;;;;;;;5017196;28;20030;-57
2024/01/29 08:42:06;;;;;;;28.13;19.20;;;;;;;;;;5017128;28;20107;-57
2024/01/29 08:44:31;;;;;;;28.02;19.15;;;;;;;;;;5016856;28;20384;-57
2024/01/29 08:46:57;;;;;;;16.90;12.75;;;;;;;;;;5016792;28;20541;-57
2024/01/29 08:49:22;;;;;;;14.20;10.98;;;;;;;;;;5017334;28;20026;-57
2024/01/29 08:51:47;;;;;;;16.58;11.82;;;;;;;;;;5017257;28;20030;-57
2024/01/29 08:54:13;;;;;;;16.08;10.85;;;;;;;;;;5016048;28;20040;-57
2024/01/29 08:56:39;;;;;;;17.05;11.00;;;;;;;;;;5016917;28;20069;-57
2024/01/29 08:59:06;;;;;;;12.75;10.00;;;;;;;;;;5016554;28;20496;-57
2024/01/29 09:01:31;;;;;;;15.02;10.32;;;;;;;;;;4998978;28;20022;-57
2024/01/29 09:03:56;;;;;;;17.60;10.40;;;;;;;;;;5017021;28;20113;-57
2024/01/29 09:06:22;;;;;;;15.88;10.50;;;;;;;;;;5016375;28;20022;-57
2024/01/29 09:08:48;;;;;;;15.10;10.43;;;;;;;;;;5016719;28;20540;-57
2024/01/29 09:11:14;;;;;;;14.98;10.60;;;;;;;;;;5016657;28;20026;-57
2024/01/29 09:13:39;;;;;;;17.85;12.30;;;;;;;;;;5016617;28;20026;-57
2024/01/29 09:16:04;;;;;;;19.00;12.15;;;;;;;;;;5016235;28;20030;-57
2024/01/29 09:18:30;;;;;;;19.17;12.27;;;;;;;;;;5015531;28;20113;-57
2024/01/29 09:20:57;;;;;;;17.67;11.57;;;;;;;;;;5016184;28;20384;-57
2024/01/29 09:23:22;;;;;;;17.60;11.85;;;;;;;;;;5014883;28;20180;-57
2024/01/29 09:25:47;;;;;;;16.13;11.40;;;;;;;;;;5016055;28;20050;-57
2024/01/29 09:28:13;;;;;;;14.27;10.27;;;;;;;;;;5015994;28;20105;-57
2024/01/29 09:30:38;;;;;;;17.35;11.90;;;;;;;;;;5016001;28;20394;-57
2024/01/29 09:33:03;;;;;;;14.63;9.32;;;;;;;;;;5016495;28;20025;-57
2024/01/29 09:35:29;;;;;;;15.23;10.02;;;;;;;;;;5016173;28;20084;-57
2024/01/29 09:37:54;;;;;;;15.20;10.45;;;;;;;;;;5016135;28;20481;-57
2024/01/29 09:40:20;;;;;;;25.35;16.27;;;;;;;;;;5014677;28;20482;-57
2024/01/29 09:42:48;;;;;;;20.52;14.35;;;;;;;;;;5016056;28;20120;-57
2024/01/29 09:45:18;;;;;;;23.90;15.68;;;;;;;;;;5015921;28;20084;-57
2024/01/29 09:47:43;;;;;;;22.92;15.50;;;;;;;;;;5015700;28;20033;-57
2024/01/29 09:50:09;;;;;;;21.15;13.20;;;;;;;;;;5014497;28;20109;-57
2024/01/29 09:52:37;;;;;;;18.52;12.10;;;;;;;;;;5015587;28;20061;-57
2024/01/29 09:55:03;;;;;;;20.98;13.82;;;;;;;;;;5015543;28;20105;-57
2024/01/29 09:57:28;;;;;;;23.95;14.60;;;;;;;;;;5015521;28;20045;-57
2024/01/29 09:59:54;;;;;;;23.58;13.63;;;;;;;;;;5015440;28;20026;-57
2024/01/29 10:02:20;;;;;;;26.15;15.05;;;;;;;;;;5015371;28;20038;-57
2024/01/29 10:04:45;;;;;;;16.45;9.95;;;;;;;;;;5015634;28;20030;-57
2024/01/29 10:07:11;;;;;;;23.35;14.38;;;;;;;;;;5015540;28;20040;-57
2024/01/29 10:09:36;;;;;;;17.02;10.73;;;;;;;;;;5014384;28;20092;-57
2024/01/29 10:12:02;;;;;;;13.27;8.95;;;;;;;;;;5015257;28;20381;-57
2024/01/29 10:14:27;;;;;;;14.55;9.27;;;;;;;;;;5015453;28;20030;-57
2024/01/29 10:16:53;;;;;;;14.90;9.15;;;;;;;;;;4997547;28;20030;-57
2024/01/29 10:19:18;;;;;;;13.55;8.63;;;;;;;;;;5013897;28;20540;-57
2024/01/29 10:21:45;;;;;;;16.52;10.35;;;;;;;;;;5015575;28;20042;-57
2024/01/29 10:24:13;;;;;;;18.90;11.93;;;;;;;;;;5015283;28;20072;-57
2024/01/29 10:26:39;;;;;;;31.08;17.08;;;;;;;;;;5014754;28;20497;-57
2024/01/29 10:29:06;;;;;;;23.67;15.60;;;;;;;;;;5014776;28;20033;-57
2024/01/29 10:31:31;;;;;;;21.13;12.63;;;;;;;;;;5014889;28;20116;-57
2024/01/29 10:33:58;;;;;;;19.58;12.93;;;;;;;;;;5014801;28;20117;-57
2024/01/29 10:36:24;;;;;;;15.60;9.32;;;;;;;;;;4998011;28;20036;-57
2024/01/29 10:38:50;;;;;;;15.00;9.18;;;;;;;;;;5014771;28;20067;-57
2024/01/29 10:41:17;;;;;;;15.20;8.88;;;;;;;;;;5014704;28;20393;-57
2024/01/29 10:43:46;;;;;;;15.57;9.68;;;;;;;;;;5014688;28;20054;-57
2024/01/29 10:46:12;;;;;;;16.48;10.45;;;;;;;;;;4997320;28;20480;-57
2024/01/29 10:48:38;;;;;;;18.23;10.85;;;;;;;;;;5015128;28;20030;-57
2024/01/29 10:51:05;;;;;;;17.35;10.60;;;;;;;;;;4996917;28;20385;-57
2024/01/29 10:53:31;;;;;;;15.07;9.73;;;;;;;;;;5014782;28;20033;-58
2024/01/29 10:55:56;;;;;;;11.00;7.93;;;;;;;;;;5013168;28;20044;-58
2024/01/29 10:58:22;;;;;;;13.05;8.10;;;;;;;;;;5014694;28;20030;-58
2024/01/29 11:00:48;;;;;;;12.38;7.13;;;;;;;;;;5014336;28;20037;-57
2024/01/29 11:03:14;;;;;;;10.05;7.05;;;;;;;;;;5014875;28;20062;-57
2024/01/29 11:05:42;;;;;;;9.10;6.47;;;;;;;;;;5014243;28;20041;-57
2024/01/29 11:08:20;;;;;;;10.20;6.95;;;;;;;;;;5014274;28;20054;-57
2024/01/29 11:10:46;;;;;;;9.10;5.97;;;;;;;;;;5014409;28;20032;-58
2024/01/29 11:13:12;;;;;;;10.13;6.28;;;;;;;;;;5014188;28;20022;-57
2024/01/29 11:15:38;;;;;;;12.73;7.53;;;;;;;;;;5014412;28;20084;-57
2024/01/29 11:18:04;;;;;;;11.98;8.07;;;;;;;;;;5014341;28;20100;-57
2024/01/29 11:20:31;;;;;;;10.07;6.60;;;;;;;;;;5014364;28;20026;-57
2024/01/29 11:22:59;;;;;;;9.27;6.65;;;;;;;;;;5014045;28;20084;-57
2024/01/29 11:25:25;;;;;;;7.80;5.50;;;;;;;;;;5014068;28;20070;-57
2024/01/29 11:27:51;;;;;;;7.25;5.63;;;;;;;;;;5014013;28;20105;-57
2024/01/29 11:30:21;;;;;;;9.82;5.97;;;;;;;;;;5013946;28;20454;-57
2024/01/29 11:32:47;;;;;;;7.50;4.93;;;;;;;;;;4996344;28;20036;-57
2024/01/29 11:35:13;;;;;;;7.22;5.55;;;;;;;;;;5014417;28;20452;-57
2024/01/29 11:37:39;;;;;;;5.88;4.40;;;;;;;;;;5014157;28;20034;-57
2024/01/29 11:40:26;;;;;;;7.72;4.93;;;;;;;;;;5013334;28;20446;-57
2024/01/29 11:42:51;;;;;;;6.78;4.82;;;;;;;;;;4989463;28;20042;-58
2024/01/29 11:45:17;;;;;;;7.07;4.43;;;;;;;;;;5014224;28;20037;-58
2024/01/29 11:47:43;;;;;;;5.90;4.45;;;;;;;;;;5014268;28;20455;-57
2024/01/29 11:50:09;;;;;;;5.10;4.43;;;;;;;;;;5013724;28;20022;-57
2024/01/29 11:52:34;;;;;;;6.13;4.68;;;;;;;;;;5013956;28;20037;-57
2024/01/29 11:55:00;;;;;;;4.85;4.38;;;;;;;;;;5013966;28;20033;-57
2024/01/29 11:57:25;;;;;;;6.45;5.05;;;;;;;;;;5014194;28;20114;-57
2024/01/29 11:59:50;;;;;;;5.38;4.50;;;;;;;;;;5012540;28;20080;-57
2024/01/29 12:02:15;;;;;;;5.47;4.47;;;;;;;;;;5013902;28;20093;-57
2024/01/29 12:04:41;;;;;;;12.25;7.32;;;;;;;;;;5012741;28;20358;-57
2024/01/29 12:07:06;;;;;;;9.38;5.63;;;;;;;;;;5013377;28;20032;-57
2024/01/29 12:09:33;;;;;;;6.18;4.88;;;;;;;;;;5012703;28;20024;-57
2024/01/29 12:14:47;;;;;;;7.45;4.63;;;;;;;;;;5025058;23;20727;-92
2024/01/29 12:17:14;;;;;;;7.95;5.30;;;;;;;;;;4971818;28;20035;-93
2024/01/29 12:19:51;;;;;;;5.88;4.55;;;;;;;;;;4962636;28;20054;-94
2024/01/29 12:22:50;;;;;;;9.43;6.18;;;;;;;;;;4993103;28;20084;-94
2024/01/29 12:25:36;;;;;;;7.45;4.55;;;;;;;;;;4980444;28;20043;-94
2024/01/29 12:28:07;;;;;;;8.00;5.22;;;;;;;;;;4961526;28;20033;-94
2024/01/29 12:31:02;;;;;;;;;;;;;;;;;;;;;
2024/01/29 12:34:04;;;;;;;;;;;;;;;;;;;;;
2024/01/29 12:36:54;;;;;;;;;;;;;;;;;;;;;
2024/01/29 12:39:39;;;;;;;5.93;4.85;;;;;;;;;;4994844;28;20026;-93
2024/01/29 12:42:11;;;;;;;7.18;5.63;;;;;;;;;;4977475;28;20037;-93
2024/01/29 12:45:17;;;;;;;7.78;4.90;;;;;;;;;;4979758;28;20034;-94
2024/01/29 12:48:19;;;;;;;;;;;;;;;;;;;;;
2024/01/29 12:51:13;;;;;;;4.93;4.43;;;;;;;;;;4993581;28;20042;-91
2024/01/29 12:54:22;;;;;;;6.90;5.05;;;;;;;;;;4977582;28;20117;-91
2024/01/29 13:00:34;;;;;;;21.13;9.18;;;;;;;;;;4983835;28;20089;-92
2024/01/29 13:03:33;;;;;;;25.85;11.82;;;;;;;;;;4965171;28;20054;-92
2024/01/29 13:06:14;;;;;;;13.00;6.68;;;;;;;;;;4980425;28;20050;-92
2024/01/29 13:09:20;;;;;;;;;;;;;;;;;;;;;
2024/01/29 13:11:49;;;;;;;10.10;5.30;;;;;;;;;;4988142;28;20089;-91
2024/01/29 13:57:40;;;;;;;19.48;8.73;;;;;;;;;;5092106;27;20457;-55
2024/01/29 14:00:06;;;;;;;16.40;8.95;;;;;;;;;;5091786;28;20059;-56
2024/01/29 14:02:34;;;;;;;17.27;6.65;;;;;;;;;;5091422;28;20473;-55
2024/01/29 14:05:00;;;;;;;20.48;8.45;;;;;;;;;;5091500;28;20060;-55
2024/01/29 14:07:26;;;;;;;12.05;7.05;;;;;;;;;;5091306;28;20039;-55
2024/01/29 14:09:51;;;;;;;12.43;5.63;;;;;;;;;;5090981;28;20029;-55
2024/01/29 14:12:18;;;;;;;14.30;7.38;;;;;;;;;;5089501;28;20085;-55
2024/01/29 14:14:44;;;;;;;17.00;8.43;;;;;;;;;;5090582;28;20025;-56
2024/01/29 14:17:09;;;;;;;15.98;9.73;;;;;;;;;;5089840;28;20135;-55
2024/01/29 14:19:34;;;;;;;15.77;7.57;;;;;;;;;;5089791;28;20031;-55
2024/01/29 14:22:00;;;;;;;13.93;7.95;;;;;;;;;;5088409;28;20036;-55
2024/01/29 14:24:25;;;;;;;10.88;6.47;;;;;;;;;;5090595;28;20066;-55
2024/01/29 14:26:51;;;;;;;13.43;7.63;;;;;;;;;;5090669;28;20028;-56
2024/01/29 14:29:16;;;;;;;26.45;12.18;;;;;;;;;;5091273;28;20052;-55
2024/01/29 14:31:42;;;;;;;32.60;16.35;;;;;;;;;;5090702;28;20370;-55
2024/01/29 14:34:07;;;;;;;34.13;18.20;;;;;;;;;;5090593;28;20105;-56
2024/01/29 14:36:32;;;;;;;41.13;20.35;;;;;;;;;;5091011;28;20024;-55
2024/01/29 14:38:59;;;;;;;50.40;25.52;;;;;;;;;;5090888;28;20032;-56
2024/01/29 14:41:24;;;;;;;65.47;31.60;;;;;;;;;;5090476;28;20099;-56
2024/01/29 14:43:50;;;;;;;46.65;25.10;;;;;;;;;;5089596;28;20127;-55
2024/01/29 14:46:15;;;;;;;45.55;23.33;;;;;;;;;;5090670;28;20032;-56
2024/01/29 14:48:41;;;;;;;28.10;14.65;;;;;;;;;;5089950;28;20477;-55
2024/01/29 14:51:06;;;;;;;26.58;13.63;;;;;;;;;;5090640;28;20040;-55
2024/01/29 14:53:32;;;;;;;21.38;12.00;;;;;;;;;;5090457;28;20028;-56
2024/01/29 14:55:57;;;;;;;22.13;13.13;;;;;;;;;;5090319;28;20421;-55
2024/01/29 14:58:23;;;;;;;24.52;13.07;;;;;;;;;;5090561;28;20028;-55
2024/01/29 15:00:48;;;;;;;25.25;14.00;;;;;;;;;;5090701;28;20036;-55
2024/01/29 15:03:13;;;;;;;26.73;15.30;;;;;;;;;;5090546;28;20111;-56
2024/01/29 15:05:39;;;;;;;29.77;15.45;;;;;;;;;;5090133;28;20054;-55
2024/01/29 15:08:05;;;;;;;41.20;22.00;;;;;;;;;;5082196;28;20431;-56
2024/01/29 15:10:30;;;;;;;59.60;32.45;;;;;;;;;;5076739;28;20112;-55
2024/01/29 15:12:56;;;;;;;60.80;33.80;;;;;;;;;;5076535;28;20036;-56
2024/01/29 15:15:21;;;;;;;59.92;32.50;;;;;;;;;;5076795;28;20033;-56